Latest Weather Observations for Creal Reef

IDQ60801

Issued at 7:32 pm EST Friday 22 May 2015 (issued every 30 minutes, with the page automatically refreshed every 10 minutes)

About weather observations | Map of weather stations | Latest weather observations for QLD | Other Formats
Station Details ID: 200736 Name: CREAL REEF Lat: -20.53 Lon: 150.38 Height: 1.7 m
Data from the previous 72 hours. | See also: Recent months for locations in Queensland
Date/Time
EST
Temp
°C
App
Temp
°C
Dew
Point
Rel
Hum
%
Delta-T
°C
Wind Press
QNH
hPa
Press
MSL
hPa
Rain
since 9 am
mm
Dir
 
Spd
km/h
Gust
km/h
Spd
kts
Gust
kts
22/07:30pm 22.9 - - - - SSE 32 37 17 20 1018.0 - -
22/07:20pm 22.7 - - - - SSE 33 39 18 21 1017.8 1017.7 -
22/07:00pm 22.7 - - - - SSE 33 41 18 22 1017.6 - -
22/06:30pm 22.6 - - - - SSE 32 39 17 21 1017.3 - -
22/06:20pm 22.8 - - - - SSE 32 - 17 - - 1017.2 -
22/06:00pm 22.7 - - - - SSE 30 35 16 19 1017.0 - -
22/05:30pm 22.6 - - - - SSE 30 39 16 21 1016.7 - -
22/05:20pm 22.7 - - - - S 35 - 19 - - 1016.6 -
22/05:00pm 22.7 - - - - S 33 41 18 22 1016.5 - -
22/04:30pm 22.8 - - - - S 37 43 20 23 1016.2 - -
22/04:20pm 22.7 - - - - S 35 - 19 - - 1016.1 -
22/04:00pm 22.5 - - - - S 39 44 21 24 1016.0 - -
22/03:30pm 22.6 - - - - S 37 43 20 23 1015.7 - -
22/03:20pm 22.5 - - - - S 39 - 21 - - 1015.7 -
22/03:00pm 22.5 - - - - S 37 43 20 23 1015.8 - -
22/02:30pm 22.6 - - - - S 41 48 22 26 1015.7 - -
22/02:20pm 22.5 - - - - S 41 - 22 - - 1015.5 -
22/02:00pm 22.4 - - - - S 39 46 21 25 1015.8 - -
22/01:30pm 22.5 - - - - S 39 46 21 25 1015.9 - -
22/01:20pm 22.4 - - - - S 41 - 22 - - 1015.9 -
22/01:00pm 22.6 - - - - S 41 48 22 26 1016.1 - -
22/12:30pm 22.8 - - - - S 37 44 20 24 1016.5 - -
22/12:20pm 22.9 - - - - S 37 - 20 - - 1016.6 -
22/12:00pm 23.0 - - - - S 39 44 21 24 1016.8 - -
22/11:30am 23.0 - - - - S 39 44 21 24 1017.0 - -
22/11:20am 22.9 - - - - S 39 - 21 - - 1017.0 -
22/11:00am 23.1 - - - - S 39 46 21 25 1017.2 - -
22/10:30am 22.9 - - - - SSW 41 44 22 24 1017.4 - -
22/10:20am 23.2 - - - - SSW 39 - 21 - - 1017.3 -
22/10:00am 23.3 - - - - SSW 37 43 20 23 1017.6 - -
22/09:30am 23.4 - - - - SSW 39 44 21 24 1017.6 - -
22/09:20am 23.5 - - - - SSW 39 - 21 - - 1017.4 -
22/09:00am 23.8 - - - - SSW 37 43 20 23 1017.4 - -
22/08:30am 23.3 - - - - SSW 39 44 21 24 1017.0 - -
22/08:20am 23.3 - - - - SSW 37 - 20 - - 1016.8 -
22/08:00am 23.7 - - - - SW 32 37 17 20 1016.7 - -
22/07:30am 23.0 - - - - NNE 7 19 4 10 1016.7 - -
22/07:20am 22.7 - - - - NW 7 - 4 - - 1016.6 -
22/07:00am 22.6 - - - - WNW 20 24 11 13 1016.7 - -
22/06:30am 22.7 - - - - SSW 11 19 6 10 1016.3 - -
22/06:20am 23.1 - - - - W 24 - 13 - - 1016.3 -
22/06:00am 24.0 - - - - W 19 20 10 11 1015.9 - -
22/05:30am 24.4 - - - - CALM 0 0 0 0 1015.4 - -
22/05:20am 24.4 - - - - CALM 0 - 0 - - 1015.2 -
22/05:00am 24.4 - - - - W 9 11 5 6 1015.3 - -
22/04:30am 24.6 - - - - NW 7 9 4 5 1015.0 - -
22/04:20am 24.5 - - - - NNW 7 - 4 - - 1014.9 -
22/04:00am 24.5 - - - - N 7 9 4 5 1014.9 - -
22/03:30am 24.6 - - - - N 7 9 4 5 1015.1 - -
22/03:20am 24.7 - - - - N 9 - 5 - - 1014.9 -
22/03:00am 24.6 - - - - NNE 11 15 6 8 1015.0 - -
22/02:30am 24.6 - - - - N 13 15 7 8 1015.0 - -
22/02:20am 24.7 - - - - N 13 - 7 - - 1015.0 -
22/02:00am 24.6 - - - - NNE 15 17 8 9 1015.2 - -
22/01:30am 24.7 - - - - NNE 13 17 7 9 1015.5 - -
22/01:20am 24.8 - - - - NNE 15 - 8 - - 1015.6 -
22/01:00am 24.7 - - - - NE 19 20 10 11 1015.8 - -
22/12:30am 24.7 - - - - NE 19 22 10 12 1016.0 - -
22/12:20am 24.8 - - - - NE 19 - 10 - - 1016.1 -
22/12:00am 24.8 - - - - NE 20 24 11 13 1016.3 - -
 
Date/Time
EST
Temp
°C
App
Temp
°C
Dew
Point
Rel
Hum
%
Delta-T
°C
Wind Press
QNH
hPa
Press
MSL
hPa
Rain
since 9 am
mm
Dir
 
Spd
km/h
Gust
km/h
Spd
kts
Gust
kts
21/11:30pm 24.8 - - - - NE 22 24 12 13 1016.5 - -
21/11:20pm 24.8 - - - - ENE 20 - 11 - - 1016.6 -
21/11:00pm 24.8 - - - - NE 20 24 11 13 1016.8 - -
21/10:30pm 24.8 - - - - NE 19 22 10 12 1017.1 - -
21/10:20pm 24.7 - - - - NE 15 - 8 - - 1017.0 -
21/10:00pm 24.8 - - - - NE 17 20 9 11 1017.0 - -
21/09:30pm 24.7 - - - - ENE 17 20 9 11 1017.1 - -
21/09:20pm 24.6 - - - - ENE 19 - 10 - - 1017.0 -
21/09:00pm 24.7 - - - - ENE 20 22 11 12 1017.0 - -
21/08:30pm 24.7 - - - - E 11 13 6 7 1017.0 - -
21/08:20pm 24.7 - - - - E 11 - 6 - - 1016.9 -
21/08:00pm 24.7 - - - - ENE 13 15 7 8 1017.1 - -
21/07:30pm 24.6 - - - - ENE 17 20 9 11 1016.7 - -
21/07:20pm 24.5 - - - - ENE 15 - 8 - - 1016.5 -
21/07:00pm 24.6 - - - - ENE 15 17 8 9 1016.3 - -
21/06:30pm 24.5 - - - - E 9 11 5 6 1016.2 - -
21/06:20pm 24.5 - - - - E 7 - 4 - - 1016.1 -
21/06:00pm 24.5 - - - - CALM 0 0 0 0 1016.1 - -
21/05:30pm 24.6 - - - - NNE 6 7 3 4 1016.0 - -
21/05:20pm 24.6 - - - - NNE 6 - 3 - - 1015.7 -
21/05:00pm 24.8 - - - - CALM 0 6 0 3 1015.6 - -
21/04:30pm 25.2 - - - - NNE 7 11 4 6 1015.4 - -
21/04:20pm 25.2 - - - - NNE 7 - 4 - - 1015.2 -
21/04:00pm 25.1 - - - - NNE 7 9 4 5 1015.3 - -
21/03:30pm 25.4 - - - - ENE 7 9 4 5 1015.3 - -
21/03:20pm 25.3 - - - - S 9 - 5 - - 1015.1 -
21/03:00pm 25.1 - - - - S 9 11 5 6 1015.3 - -
21/02:30pm 25.3 - - - - SE 9 11 5 6 1015.5 - -
21/02:20pm 25.4 - - - - NE 9 - 5 - - 1015.3 -
21/02:00pm 25.1 - - - - ENE 9 11 5 6 1015.5 - -
21/01:30pm 25.2 - - - - NE 7 9 4 5 1015.9 - -
21/01:20pm 25.0 - - - - NE 7 - 4 - - 1015.8 -
21/01:00pm 24.9 - - - - ENE 7 9 4 5 1016.2 - -
21/12:30pm 24.9 - - - - NE 9 11 5 6 1016.8 - -
21/12:20pm 25.1 - - - - N 9 - 5 - - 1016.9 -
21/12:00pm 25.0 - - - - E 9 11 5 6 1017.4 - -
21/11:30am 25.1 - - - - E 9 11 5 6 1017.8 - -
21/11:20am 25.0 - - - - E 7 - 4 - - 1017.8 -
21/11:00am 25.1 - - - - E 7 9 4 5 1018.0 - -
21/10:30am 25.1 - - - - E 7 11 4 6 1018.3 - -
21/10:20am 25.3 - - - - E 7 - 4 - - 1018.3 -
21/10:00am 25.3 - - - - E 7 9 4 5 1018.6 - -
21/09:30am 25.1 - - - - E 9 11 5 6 1018.7 - -
21/09:20am 25.0 - - - - E 9 - 5 - - 1018.6 -
21/09:00am 25.1 - - - - E 9 11 5 6 1018.6 - -
21/08:30am 25.0 - - - - E 9 13 5 7 1018.4 - -
21/08:20am 24.9 - - - - E 11 - 6 - - 1018.2 -
21/08:00am 24.8 - - - - E 11 13 6 7 1018.3 - -
21/07:30am 24.7 - - - - E 11 13 6 7 1018.2 - -
21/07:20am 24.6 - - - - E 13 - 7 - - 1018.0 -
21/07:00am 24.7 - - - - E 13 15 7 8 1017.9 - -
21/06:30am 24.2 - - - - WSW 11 13 6 7 1017.5 - -
21/06:20am 24.2 - - - - SW 11 - 6 - - 1017.3 -
21/06:00am 24.1 - - - - SW 13 15 7 8 1017.3 - -
21/05:30am 24.2 - - - - ESE 15 19 8 10 1017.0 - -
21/05:20am 24.2 - - - - ESE 15 - 8 - - 1016.8 -
21/05:00am 24.3 - - - - E 15 17 8 9 1016.9 - -
21/04:30am 24.2 - - - - E 13 15 7 8 1016.8 - -
21/04:20am 24.2 - - - - ESE 15 - 8 - - 1016.7 -
21/04:00am 24.3 - - - - E 13 15 7 8 1016.7 - -
21/03:30am 24.2 - - - - E 15 17 8 9 1016.7 - -
21/03:20am 24.2 - - - - E 15 - 8 - - 1016.6 -
21/03:00am 24.3 - - - - E 15 19 8 10 1016.6 - -
21/02:30am 24.2 - - - - E 15 17 8 9 1016.7 - -
21/02:20am 24.1 - - - - E 15 - 8 - - 1016.6 -
21/02:00am 24.2 - - - - ESE 15 17 8 9 1017.0 - -
21/01:30am 24.2 - - - - ESE 15 17 8 9 1017.3 - -
21/01:20am 24.2 - - - - ESE 15 - 8 - - 1017.3 -
21/01:00am 24.3 - - - - ESE 15 19 8 10 1017.7 - -
21/12:30am 24.4 - - - - ESE 17 19 9 10 1017.8 - -
21/12:20am 24.3 - - - - ESE 17 - 9 - - 1017.8 -
21/12:00am 24.3 - - - - ESE 17 19 9 10 1018.0 - -
 
Date/Time
EST
Temp
°C
App
Temp
°C
Dew
Point
Rel
Hum
%
Delta-T
°C
Wind Press
QNH
hPa
Press
MSL
hPa
Rain
since 9 am
mm
Dir
 
Spd
km/h
Gust
km/h
Spd
kts
Gust
kts
20/11:30pm 24.4 - - - - ESE 17 20 9 11 1018.1 - -
20/11:20pm 24.3 - - - - ESE 17 - 9 - - 1018.0 -
20/11:00pm 24.4 - - - - E 19 20 10 11 1018.3 - -
20/10:30pm 24.4 - - - - E 19 22 10 12 1018.3 - -
20/10:20pm 24.4 - - - - ESE 20 - 11 - - 1018.2 -
20/10:00pm 24.5 - - - - E 20 24 11 13 1018.3 - -
20/09:30pm 24.5 - - - - E 20 24 11 13 1018.4 - -
20/09:20pm 24.5 - - - - E 20 - 11 - - 1018.2 -
20/09:00pm 24.6 - - - - E 20 24 11 13 1018.3 - -
20/08:30pm 24.6 - - - - E 20 24 11 13 1018.2 - -
20/08:20pm 24.5 - - - - ESE 22 - 12 - - 1018.1 -
20/08:00pm 24.6 - - - - ESE 22 26 12 14 1018.0 - -
20/07:30pm 24.6 - - - - ESE 22 26 12 14 1017.7 - -
20/07:20pm 24.6 - - - - ESE 22 - 12 - - 1017.4 -
20/07:00pm 24.6 - - - - ESE 22 24 12 13 1017.3 - -
20/06:30pm 24.6 - - - - ESE 20 24 11 13 1017.0 - -
20/06:20pm 24.6 - - - - ESE 20 - 11 - - 1016.8 -
20/06:00pm 24.6 - - - - ESE 22 24 12 13 1016.8 - -
20/05:30pm 24.6 - - - - ESE 22 26 12 14 1016.4 - -
20/05:20pm 24.6 - - - - ESE 22 - 12 - - 1016.2 -
20/05:00pm 24.5 - - - - SE 22 24 12 13 1016.2 - -
20/04:30pm 24.7 - - - - SE 22 26 12 14 1015.8 - -
20/04:20pm 24.7 - - - - SE 24 - 13 - - 1015.6 -
20/04:00pm 24.8 - - - - SE 22 26 12 14 1015.6 - -
20/03:30pm 24.8 - - - - SE 20 24 11 13 1015.4 - -
20/03:20pm 24.7 - - - - SE 20 - 11 - - 1015.3 -
20/03:00pm 24.8 - - - - SE 20 24 11 13 1015.4 - -
20/02:30pm 24.8 - - - - SE 20 22 11 12 1015.7 - -
20/02:20pm 24.7 - - - - SE 20 - 11 - - 1015.6 -
20/02:00pm 24.7 - - - - SE 22 24 12 13 1015.8 - -
20/01:30pm 24.7 - - - - SE 22 24 12 13 1016.0 - -
20/01:20pm 24.6 - - - - ESE 22 - 12 - - 1016.0 -
20/01:00pm 24.6 - - - - SE 22 24 12 13 1016.4 - -
20/12:30pm 24.4 - - - - SSE 24 26 13 14 1016.8 - -
20/12:20pm 24.5 - - - - SSE 24 - 13 - - 1016.8 -
20/12:00pm 24.8 - - - - SE 24 28 13 15 1017.2 - -
20/11:30am 24.7 - - - - SE 26 28 14 15 1017.5 - -
20/11:20am 24.6 - - - - SE 26 - 14 - - 1017.6 -
20/11:00am 24.8 - - - - SE 28 33 15 18 1017.9 - -
20/10:30am 24.2 - - - - SE 22 26 12 14 1018.3 - -
20/10:20am 23.8 - - - - ESE 24 - 13 - - 1018.2 -
20/10:00am 23.9 - - - - ESE 30 35 16 19 1018.4 - -
20/09:30am 24.4 - - - - ESE 22 28 12 15 1018.5 - -
20/09:20am 24.3 - - - - ESE 22 - 12 - - 1018.5 -
20/09:00am 23.8 - - - - ESE 19 24 10 13 1018.5 - -
20/08:30am 24.3 - - - - ESE 20 24 11 13 1018.2 - -
20/08:20am 24.4 - - - - ESE 20 - 11 - - 1018.0 -
20/08:00am 23.8 - - - - ESE 33 39 18 21 1017.8 - -
20/07:30am 24.5 - - - - ESE 24 28 13 15 1017.4 - -
20/07:20am 24.2 - - - - ESE 28 - 15 - - 1017.3 -
20/07:00am 24.0 - - - - ESE 24 26 13 14 1017.1 - -
20/06:30am 23.9 - - - - ENE 15 19 8 10 1016.9 - -
20/06:20am 23.0 - - - - ENE 26 - 14 - - 1016.8 -
20/06:00am 24.7 - - - - E 22 26 12 14 1016.6 - -
20/05:30am 24.2 - - - - ESE 26 30 14 16 1016.3 - -
20/05:20am 24.1 - - - - ESE 28 - 15 - - 1016.1 -
20/05:00am 24.6 - - - - ESE 24 26 13 14 1016.3 - -
20/04:30am 24.6 - - - - ESE 24 30 13 16 1016.0 - -
20/04:20am 24.6 - - - - ESE 28 - 15 - - 1015.9 -
20/04:00am 24.2 - - - - E 26 33 14 18 1015.8 - -
20/03:30am 24.2 - - - - ESE 24 30 13 16 1015.8 - -
20/03:20am 23.9 - - - - ESE 22 - 12 - - 1015.8 -
20/03:00am 24.0 - - - - ESE 24 28 13 15 1015.9 - -
20/02:30am 24.5 - - - - ESE 26 33 14 18 1015.9 - -
20/02:20am 24.6 - - - - ESE 26 - 14 - - 1015.8 -
20/02:00am 24.7 - - - - ESE 26 30 14 16 1015.9 - -
20/01:30am 24.8 - - - - E 26 32 14 17 1016.1 - -
20/01:20am 24.8 - - - - E 26 - 14 - - 1016.0 -
20/01:00am 24.8 - - - - E 24 30 13 16 1016.3 - -
20/12:30am 24.8 - - - - E 26 30 14 16 1016.5 - -
20/12:20am 24.8 - - - - E 28 - 15 - - 1016.4 -
20/12:00am 24.8 - - - - E 24 28 13 15 1016.6 - -
 
Date/Time
EST
Temp
°C
App
Temp
°C
Dew
Point
Rel
Hum
%
Delta-T
°C
Wind Press
QNH
hPa
Press
MSL
hPa
Rain
since 9 am
mm
Dir
 
Spd
km/h
Gust
km/h
Spd
kts
Gust
kts
19/11:30pm 24.3 - - - - SE 17 26 9 14 1016.9 - -
19/11:20pm 23.9 - - - - SE 15 - 8 - - 1016.8 -
19/11:00pm 23.9 - - - - ESE 22 30 12 16 1017.1 - -
19/10:30pm 23.2 - - - - ESE 32 35 17 19 1017.3 - -
19/10:20pm 23.3 - - - - SE 32 - 17 - - 1017.2 -
19/10:00pm 24.4 - - - - SE 26 30 14 16 1017.3 - -
19/09:30pm 24.3 - - - - SSE 26 32 14 17 1017.2 - -
19/09:20pm 24.0 - - - - SSE 26 - 14 - - 1017.1 -
19/09:00pm 24.1 - - - - SSE 24 30 13 16 1017.3 - -
19/08:30pm 24.1 - - - - SSE 22 28 12 15 1017.2 - -
19/08:20pm 23.9 - - - - SSE 24 - 13 - - 1017.2 -
19/08:00pm 23.9 - - - - SSE 28 35 15 19 1017.1 - -

Other Formats:

Comma delimited format used in spreadsheet applications
http://www.bom.gov.au/fwo/IDQ60801/IDQ60801.94371.axf

JavaScript Object Notation format (JSON) in row-major order
http://www.bom.gov.au/fwo/IDQ60801/IDQ60801.94371.json